Time;durP1;ratioP1;P1;durP2;ratioP2;P2;SDS_P1;SDS_P2;PMS_P1;PMS_P2;Temp;Humidity;BMP_temperature;BMP_pressure;BME280_temperature;BME280_humidity;BME280_pressure;Samples;Min_cycle;Max_cycle;Signal;HPM_P1;HPM_P2
2022/11/25 00:01:14;;;;;;;133.00;75.80;;;;;;;1.04;100.00;98905.80;105517;1294;67611;-73
2022/11/25 00:03:41;;;;;;;137.80;75.70;;;;;;;1.03;100.00;98904.09;105606;1286;64063;-73
2022/11/25 00:06:13;;;;;;;136.80;72.50;;;;;;;1.01;100.00;98905.02;105904;1290;59050;-74
2022/11/25 00:08:41;;;;;;;138.80;73.40;;;;;;;0.99;100.00;98904.38;105779;1285;59353;-73
2022/11/25 00:11:07;;;;;;;120.70;70.10;;;;;;;0.96;100.00;98906.05;105802;1293;64706;-74
2022/11/25 00:13:34;;;;;;;125.40;69.30;;;;;;;0.94;100.00;98910.30;105788;1293;58892;-74
2022/11/25 00:16:02;;;;;;;123.20;69.30;;;;;;;0.93;100.00;98908.05;105913;1283;62816;-74
2022/11/25 00:18:29;;;;;;;133.10;71.00;;;;;;;0.93;100.00;98907.54;105403;1292;1002443;-74
2022/11/25 00:20:58;;;;;;;121.30;67.60;;;;;;;0.91;100.00;98909.00;105928;1291;58947;-74
2022/11/25 00:23:24;;;;;;;123.60;68.90;;;;;;;0.88;100.00;98911.35;105930;1290;59588;-74
2022/11/25 00:25:49;;;;;;;124.00;69.20;;;;;;;0.85;100.00;98913.88;105927;1284;58782;-74
2022/11/25 00:28:18;;;;;;;123.10;70.30;;;;;;;0.83;100.00;98917.09;105791;1291;59126;-74
2022/11/25 00:30:44;;;;;;;117.10;67.20;;;;;;;0.79;100.00;98920.70;105904;1291;58983;-73
2022/11/25 00:33:10;;;;;;;132.30;71.00;;;;;;;0.77;100.00;98923.04;105948;1284;58896;-73
2022/11/25 00:35:36;;;;;;;129.70;74.90;;;;;;;0.74;100.00;98922.25;105928;1284;58983;-73
2022/11/25 00:38:02;;;;;;;137.50;76.50;;;;;;;0.71;100.00;98919.88;105944;1290;58920;-74
2022/11/25 00:40:27;;;;;;;126.20;71.80;;;;;;;0.68;100.00;98919.80;105730;1293;59418;-74
2022/11/25 00:45:38;;;;;;;135.10;74.40;;;;;;;0.66;100.00;98928.05;105957;1291;58800;-73
2022/11/25 00:48:04;;;;;;;136.40;74.40;;;;;;;0.70;100.00;98929.16;105953;1290;59019;-73
2022/11/25 00:50:32;;;;;;;137.70;80.00;;;;;;;0.74;100.00;98930.10;105932;1283;60050;-73
2022/11/25 00:52:58;;;;;;;144.00;77.70;;;;;;;0.77;100.00;98934.92;105923;1283;58811;-74
2022/11/25 00:55:23;;;;;;;134.40;77.70;;;;;;;0.81;100.00;98941.96;105182;1290;1002390;-74
2022/11/25 00:57:51;;;;;;;141.80;78.80;;;;;;;0.87;100.00;98941.45;105918;1283;58915;-73
2022/11/25 01:00:17;;;;;;;141.30;80.60;;;;;;;0.92;100.00;98945.85;105939;1287;59412;-73
2022/11/25 01:02:43;;;;;;;128.90;75.00;;;;;;;0.97;100.00;98943.45;105915;1284;58825;-74
2022/11/25 01:05:09;;;;;;;141.40;83.20;;;;;;;1.03;100.00;98942.94;105939;1290;58996;-74
2022/11/25 01:07:35;;;;;;;149.30;86.10;;;;;;;1.05;100.00;98941.13;105915;1278;58982;-74
2022/11/25 01:10:01;;;;;;;155.20;84.90;;;;;;;1.08;100.00;98937.85;105951;1291;58939;-74
2022/11/25 01:12:27;;;;;;;148.00;88.00;;;;;;;1.12;100.00;98940.54;105931;1283;59312;-74
2022/11/25 01:14:53;;;;;;;153.30;91.70;;;;;;;1.15;100.00;98942.04;105935;1290;59323;-74
2022/11/25 01:17:19;;;;;;;152.30;88.60;;;;;;;1.20;100.00;98938.40;105978;1290;58988;-74
2022/11/25 01:19:44;;;;;;;162.30;95.60;;;;;;;1.23;100.00;98938.83;105932;1290;58823;-74
2022/11/25 01:22:10;;;;;;;160.30;92.90;;;;;;;1.27;100.00;98932.59;105934;1278;59024;-74
2022/11/25 01:24:37;;;;;;;165.30;94.00;;;;;;;1.32;100.00;98934.19;105669;1281;59136;-74
2022/11/25 01:27:03;;;;;;;160.00;91.50;;;;;;;1.37;100.00;98933.34;105939;1283;59448;-74
2022/11/25 01:29:29;;;;;;;149.70;89.80;;;;;;;1.41;100.00;98933.90;105933;1283;58954;-74
2022/11/25 01:31:56;;;;;;;164.40;97.70;;;;;;;1.45;100.00;98931.34;105946;1283;58758;-73
2022/11/25 01:34:24;;;;;;;167.40;97.70;;;;;;;1.49;100.00;98932.79;105952;1298;59033;-73
2022/11/25 01:36:50;;;;;;;154.30;91.30;;;;;;;1.50;100.00;98928.70;105938;1290;59987;-73
2022/11/25 01:39:20;;;;;;;147.70;88.60;;;;;;;1.54;100.00;98932.46;105942;1291;59043;-73
2022/11/25 01:41:47;;;;;;;141.70;89.10;;;;;;;1.55;100.00;98930.67;105916;1290;58871;-73
2022/11/25 01:44:15;;;;;;;147.00;86.00;;;;;;;1.57;100.00;98929.75;105930;1290;58818;-74
2022/11/25 01:46:44;;;;;;;147.40;87.60;;;;;;;1.58;100.00;98931.30;105925;1288;64767;-73
2022/11/25 01:49:24;;;;;;;138.00;85.60;;;;;;;1.59;100.00;98931.96;105914;1287;60067;-74
2022/11/25 01:52:14;;;;;;;143.30;84.50;;;;;;;1.61;100.00;98934.86;105919;1291;64473;-73
2022/11/25 01:55:00;;;;;;;149.30;87.50;;;;;;;1.62;100.00;98933.96;105927;1290;58961;-74
2022/11/25 01:57:33;;;;;;;147.00;89.30;;;;;;;1.62;100.00;98932.55;105662;1286;59288;-74
2022/11/25 02:00:03;;;;;;;137.00;83.90;;;;;;;1.64;100.00;98931.45;105920;1290;66037;-74
2022/11/25 02:02:30;;;;;;;139.40;84.10;;;;;;;1.64;100.00;98932.67;105951;1283;60061;-74
2022/11/25 02:04:57;;;;;;;150.70;90.40;;;;;;;1.62;100.00;98927.83;105929;1291;62491;-74
2022/11/25 02:07:38;;;;;;;145.40;88.30;;;;;;;1.62;100.00;98934.98;105932;1290;58917;-74
2022/11/25 02:10:07;;;;;;;142.30;88.10;;;;;;;1.65;100.00;98934.92;105908;1290;59483;-74
2022/11/25 02:12:35;;;;;;;142.50;89.00;;;;;;;1.68;100.00;98931.66;105939;1290;64775;-74
2022/11/25 02:15:03;;;;;;;148.20;88.90;;;;;;;1.70;100.00;98931.23;105706;1286;58961;-74
2022/11/25 02:17:29;;;;;;;143.80;88.80;;;;;;;1.73;100.00;98932.55;105772;1290;64132;-74
2022/11/25 02:20:06;;;;;;;140.60;89.00;;;;;;;1.74;100.00;98929.55;105938;1284;59125;-73
2022/11/25 02:23:03;;;;;;;143.80;91.70;;;;;;;1.76;100.00;98930.35;105758;1291;58944;-73
2022/11/25 02:25:40;;;;;;;132.40;85.30;;;;;;;1.77;100.00;98928.20;105922;1289;66856;-73
2022/11/25 02:28:09;;;;;;;146.50;88.60;;;;;;;1.80;100.00;98927.59;105929;1290;60062;-73
2022/11/25 02:30:36;;;;;;;131.80;86.30;;;;;;;1.81;100.00;98928.09;105925;1290;64098;-73
2022/11/25 02:33:02;;;;;;;135.10;87.50;;;;;;;1.82;100.00;98926.13;105949;1290;58932;-74
2022/11/25 02:35:37;;;;;;;136.60;85.70;;;;;;;1.83;100.00;98926.80;105949;1285;59033;-73
2022/11/25 02:38:11;;;;;;;139.50;89.10;;;;;;;1.85;100.00;98928.65;105922;1290;65819;-74
2022/11/25 02:40:44;;;;;;;141.20;87.80;;;;;;;1.88;100.00;98924.02;105918;1290;60197;-73
2022/11/25 02:43:12;;;;;;;133.20;85.60;;;;;;;1.89;100.00;98924.50;105928;1297;64041;-74
2022/11/25 02:45:54;;;;;;;132.50;85.70;;;;;;;1.90;100.00;98926.05;105918;1290;58973;-74
2022/11/25 02:48:20;;;;;;;135.50;83.70;;;;;;;1.93;100.00;98928.41;105682;1293;59376;-73
2022/11/25 02:50:47;;;;;;;140.10;88.60;;;;;;;1.96;100.00;98929.35;105738;1287;59108;-73
2022/11/25 02:53:13;;;;;;;141.10;90.10;;;;;;;2.00;100.00;98929.41;105699;1295;59053;-73
2022/11/25 02:55:39;;;;;;;136.60;92.30;;;;;;;2.04;100.00;98929.11;105727;1295;62610;-73
2022/11/25 02:58:06;;;;;;;133.10;86.60;;;;;;;2.07;100.00;98931.77;105708;1294;58978;-73
2022/11/25 03:00:34;;;;;;;124.20;75.00;;;;;;;2.10;100.00;98938.34;105751;1284;59512;-73
2022/11/25 03:03:01;;;;;;;122.50;74.40;;;;;;;2.14;100.00;98938.22;105506;1296;65910;-74
2022/11/25 03:05:27;;;;;;;117.60;71.90;;;;;;;2.17;100.00;98936.54;105711;1290;70794;-74
2022/11/25 03:07:53;;;;;;;110.60;67.90;;;;;;;2.19;100.00;98938.05;105535;1290;59103;-73
2022/11/25 03:10:20;;;;;;;111.90;69.90;;;;;;;2.21;100.00;98942.52;105705;1293;59085;-73
2022/11/25 03:12:46;;;;;;;108.30;67.30;;;;;;;2.25;100.00;98944.89;105728;1294;58887;-74
2022/11/25 03:15:12;;;;;;;108.50;67.20;;;;;;;2.28;100.00;98948.45;105758;1294;59424;-73
2022/11/25 03:17:39;;;;;;;108.10;66.80;;;;;;;2.30;100.00;98947.49;105731;1293;59054;-74
2022/11/25 03:20:07;;;;;;;108.70;63.40;;;;;;;2.32;100.00;98946.05;105764;1290;59902;-73
2022/11/25 03:22:33;;;;;;;102.00;60.40;;;;;;;2.34;100.00;98942.46;105950;1290;59227;-72
2022/11/25 03:24:59;;;;;;;99.20;59.20;;;;;;;2.37;100.00;98942.89;105942;1290;59016;-73
2022/11/25 03:27:25;;;;;;;100.10;60.90;;;;;;;2.38;100.00;98943.15;105931;1290;58998;-73
2022/11/25 03:29:51;;;;;;;116.70;70.50;;;;;;;2.41;100.00;98947.29;105948;1289;58935;-74
2022/11/25 03:32:17;;;;;;;108.20;66.90;;;;;;;2.43;100.00;98946.72;105942;1290;59325;-73
2022/11/25 03:34:45;;;;;;;105.70;64.10;;;;;;;2.45;100.00;98947.70;105901;1297;59009;-73
2022/11/25 03:37:11;;;;;;;100.60;58.50;;;;;;;2.47;100.00;98947.61;105942;1290;59467;-73
2022/11/25 03:39:37;;;;;;;96.40;54.50;;;;;;;2.49;100.00;98949.10;105945;1291;58895;-73
2022/11/25 03:42:04;;;;;;;104.70;57.20;;;;;;;2.54;100.00;98957.36;105922;1290;58973;-73
2022/11/25 03:44:30;;;;;;;94.80;56.70;;;;;;;2.57;100.00;98959.36;105916;1285;58890;-73
2022/11/25 03:46:56;;;;;;;91.70;54.00;;;;;;;2.60;100.00;98959.09;105929;1284;59307;-73
2022/11/25 03:49:23;;;;;;;91.90;55.70;;;;;;;2.62;100.00;98957.06;105926;1289;59102;-73
2022/11/25 03:51:48;;;;;;;96.50;56.70;;;;;;;2.64;100.00;98957.70;105967;1289;59133;-73
2022/11/25 03:54:14;;;;;;;98.10;55.70;;;;;;;2.66;100.00;98960.27;105953;1291;59012;-73
2022/11/25 03:56:41;;;;;;;97.30;55.90;;;;;;;2.69;100.00;98959.64;105659;1292;59309;-74
2022/11/25 03:59:07;;;;;;;90.70;56.20;;;;;;;2.71;100.00;98960.96;105923;1291;58908;-74
2022/11/25 04:01:33;;;;;;;105.70;65.90;;;;;;;2.73;100.00;98961.44;105978;1290;58972;-73
2022/11/25 04:03:59;;;;;;;103.00;59.60;;;;;;;2.74;100.00;98961.38;105986;1290;59078;-74
2022/11/25 04:06:25;;;;;;;96.50;59.70;;;;;;;2.76;100.00;98962.90;105937;1290;64080;-73
2022/11/25 04:08:51;;;;;;;98.80;57.50;;;;;;;2.78;100.00;98964.21;105934;1285;58933;-74
2022/11/25 04:11:17;;;;;;;91.40;55.10;;;;;;;2.81;100.00;98967.44;105975;1287;58981;-73
2022/11/25 04:13:43;;;;;;;92.80;57.20;;;;;;;2.82;100.00;98964.59;105957;1291;58871;-73
2022/11/25 04:16:21;;;;;;;92.40;56.70;;;;;;;2.86;100.00;98970.94;105584;1292;59004;-73
2022/11/25 04:18:47;;;;;;;90.70;55.20;;;;;;;2.89;100.00;98969.80;105879;1289;65114;-73
2022/11/25 04:21:13;;;;;;;88.30;51.30;;;;;;;2.90;100.00;98968.89;105928;1291;58900;-74
2022/11/25 04:23:38;;;;;;;93.50;54.80;;;;;;;2.93;100.00;98968.80;105949;1290;58913;-74
2022/11/25 04:26:04;;;;;;;89.50;52.50;;;;;;;2.94;100.00;98968.04;105935;1290;58911;-74
2022/11/25 04:28:30;;;;;;;90.60;51.80;;;;;;;2.96;100.00;98970.79;105919;1283;58863;-73
2022/11/25 04:30:56;;;;;;;94.00;55.30;;;;;;;2.96;100.00;98971.81;105916;1291;59409;-73
2022/11/25 04:33:22;;;;;;;95.60;55.10;;;;;;;2.97;100.00;98971.25;105733;1290;58932;-73
2022/11/25 04:35:48;;;;;;;91.50;53.70;;;;;;;2.99;100.00;98974.52;105991;1290;59214;-73
2022/11/25 04:38:14;;;;;;;94.30;53.10;;;;;;;3.01;100.00;98975.17;105936;1291;70062;-73
2022/11/25 04:40:40;;;;;;;98.00;58.40;;;;;;;3.02;100.00;98977.91;105966;1291;59323;-74
2022/11/25 04:43:06;;;;;;;98.80;56.90;;;;;;;3.03;100.00;98979.27;105918;1283;58861;-73
2022/11/25 04:45:32;;;;;;;93.50;57.20;;;;;;;3.05;100.00;98982.02;105941;1284;59065;-73
2022/11/25 04:47:58;;;;;;;95.70;58.60;;;;;;;3.07;100.00;98981.80;105967;1290;59115;-73
2022/11/25 04:50:24;;;;;;;99.20;58.20;;;;;;;3.08;100.00;98980.88;105700;1291;58923;-73
2022/11/25 04:52:50;;;;;;;100.80;58.00;;;;;;;3.09;100.00;98983.98;105944;1283;58864;-73
2022/11/25 04:55:16;;;;;;;98.60;57.40;;;;;;;3.11;100.00;98984.27;105977;1281;58924;-73
2022/11/25 04:57:42;;;;;;;94.30;57.00;;;;;;;3.13;100.00;98983.15;105942;1283;65803;-74
2022/11/25 05:00:09;;;;;;;93.30;56.10;;;;;;;3.14;100.00;98985.55;105937;1289;58973;-75
2022/11/25 05:02:35;;;;;;;97.40;56.70;;;;;;;3.16;100.00;98989.86;105588;1295;72755;-73
2022/11/25 05:05:02;;;;;;;101.90;59.50;;;;;;;3.17;100.00;98993.33;105915;1283;58781;-73
2022/11/25 05:07:28;;;;;;;98.40;59.90;;;;;;;3.19;100.00;98997.86;105624;1296;59069;-75
2022/11/25 05:09:55;;;;;;;100.90;59.40;;;;;;;3.20;100.00;99001.64;105781;1293;59062;-74
2022/11/25 05:12:27;;;;;;;96.30;56.70;;;;;;;3.21;100.00;99006.71;105942;1291;59010;-74
2022/11/25 05:14:53;;;;;;;104.10;63.60;;;;;;;3.21;100.00;99010.40;105931;1290;63809;-74
2022/11/25 05:17:23;;;;;;;99.70;59.80;;;;;;;3.23;100.00;99013.86;105934;1289;59024;-74
2022/11/25 05:19:50;;;;;;;99.00;59.70;;;;;;;3.24;100.00;99014.87;105536;1291;59146;-74
2022/11/25 05:22:18;;;;;;;100.00;60.40;;;;;;;3.24;100.00;99016.08;105911;1292;67121;-73
2022/11/25 05:24:45;;;;;;;100.50;61.50;;;;;;;3.25;100.00;99015.89;105762;1292;68853;-73
2022/11/25 05:27:11;;;;;;;97.00;58.50;;;;;;;3.25;100.00;99017.10;105922;1291;59011;-74
2022/11/25 05:29:37;;;;;;;101.10;63.10;;;;;;;3.26;100.00;99019.70;105961;1290;59570;-73
2022/11/25 05:32:05;;;;;;;97.30;60.00;;;;;;;3.27;100.00;99022.65;105936;1291;59017;-73
2022/11/25 05:34:31;;;;;;;96.80;58.60;;;;;;;3.28;100.00;99023.32;105780;1292;65831;-73
2022/11/25 05:36:57;;;;;;;96.10;56.20;;;;;;;3.28;100.00;99022.96;105934;1291;58940;-73
2022/11/25 05:39:23;;;;;;;99.30;60.60;;;;;;;3.27;100.00;99028.27;105889;1287;59098;-73
2022/11/25 05:41:49;;;;;;;100.40;58.20;;;;;;;3.28;100.00;99027.38;105928;1289;58903;-73
2022/11/25 05:44:15;;;;;;;95.10;58.50;;;;;;;3.28;100.00;99028.93;105956;1290;59397;-73
2022/11/25 05:46:45;;;;;;;100.30;58.60;;;;;;;3.29;100.00;99031.71;105960;1290;58958;-73
2022/11/25 05:49:12;;;;;;;100.00;61.20;;;;;;;3.30;100.00;99031.30;105933;1291;59871;-73
2022/11/25 05:51:38;;;;;;;93.30;56.80;;;;;;;3.32;100.00;99031.25;105929;1296;65229;-73
2022/11/25 05:54:04;;;;;;;106.40;64.70;;;;;;;3.33;100.00;99029.98;105944;1291;59035;-73
2022/11/25 05:56:29;;;;;;;96.50;62.20;;;;;;;3.33;100.00;99032.45;105654;1293;58921;-74
2022/11/25 05:58:58;;;;;;;92.70;59.50;;;;;;;3.34;100.00;99036.81;105954;1291;59428;-74
2022/11/25 06:01:24;;;;;;;99.00;61.80;;;;;;;3.35;100.00;99039.94;105964;1285;60342;-73
2022/11/25 06:03:50;;;;;;;101.90;67.00;;;;;;;3.34;100.00;99038.38;105908;1284;59289;-73
2022/11/25 06:06:16;;;;;;;92.10;59.90;;;;;;;3.34;100.00;99038.38;105946;1288;58951;-73
2022/11/25 06:08:43;;;;;;;101.00;59.00;;;;;;;3.34;100.00;99036.98;105931;1290;59540;-73
2022/11/25 06:11:14;;;;;;;95.90;56.10;;;;;;;3.34;100.00;99040.14;105948;1292;58899;-73
2022/11/25 06:13:40;;;;;;;;;;;;;;;3.35;100.00;99044.67;105963;1297;60120;-73
2022/11/25 06:16:08;;;;;;;107.20;68.20;;;;;;;3.34;100.00;99045.39;105928;1290;59130;-73
2022/11/25 06:18:36;;;;;;;105.20;68.80;;;;;;;3.34;100.00;99049.95;105897;1290;58894;-73
2022/11/25 06:21:04;;;;;;;100.50;64.70;;;;;;;3.35;100.00;99050.64;105951;1292;59072;-73
2022/11/25 06:23:30;;;;;;;99.80;64.50;;;;;;;3.35;100.00;99051.52;105766;1292;64550;-73
2022/11/25 06:26:25;;;;;;;108.40;66.20;;;;;;;3.36;100.00;99051.84;105953;1291;58997;-72
2022/11/25 06:28:53;;;;;;;99.40;61.40;;;;;;;3.35;100.00;99048.69;105257;1299;73998;-73
2022/11/25 06:31:23;;;;;;;90.00;60.20;;;;;;;3.36;100.00;99053.08;105272;1300;59076;-74
2022/11/25 06:33:50;;;;;;;103.60;65.30;;;;;;;3.36;100.00;99051.11;105287;1306;59157;-74
2022/11/25 06:36:18;;;;;;;96.10;59.70;;;;;;;3.37;100.00;99052.48;105248;1299;66052;-73
2022/11/25 06:38:48;;;;;;;93.00;57.60;;;;;;;3.38;100.00;99057.91;105282;1298;60012;-73
2022/11/25 06:41:14;;;;;;;97.70;62.50;;;;;;;3.38;100.00;99059.64;105274;1298;62898;-73
2022/11/25 06:43:40;;;;;;;96.70;61.00;;;;;;;3.40;100.00;99058.36;105270;1282;58979;-73
2022/11/25 06:46:09;;;;;;;98.50;62.50;;;;;;;3.40;100.00;99058.67;105257;1298;59529;-73
2022/11/25 06:48:36;;;;;;;104.90;64.10;;;;;;;3.42;100.00;99062.85;105285;1299;75729;-73
2022/11/25 06:51:05;;;;;;;100.90;62.50;;;;;;;3.44;100.00;99061.73;105288;1298;70084;-73
2022/11/25 06:53:32;;;;;;;103.80;67.30;;;;;;;3.47;100.00;99060.56;105239;1299;62738;-73
2022/11/25 06:56:18;;;;;;;110.40;70.50;;;;;;;3.49;100.00;99064.70;105276;1300;59202;-73
2022/11/25 06:58:45;;;;;;;108.30;67.30;;;;;;;3.51;100.00;99069.20;105274;1306;58876;-73
2022/11/25 07:01:24;;;;;;;104.40;72.10;;;;;;;3.53;100.00;99068.07;105313;1300;74971;-73
2022/11/25 07:03:55;;;;;;;107.40;66.00;;;;;;;3.56;100.00;99070.44;105251;1300;60092;-73
2022/11/25 07:06:21;;;;;;;106.90;69.00;;;;;;;3.59;100.00;99074.52;105766;1291;64089;-73
2022/11/25 07:08:49;;;;;;;103.20;64.00;;;;;;;3.62;100.00;99078.27;105921;1297;58905;-73
2022/11/25 07:11:16;;;;;;;97.40;63.50;;;;;;;3.66;100.00;99077.24;105769;1292;58988;-72
2022/11/25 07:13:42;;;;;;;95.70;57.80;;;;;;;3.70;100.00;99079.54;105922;1290;74094;-73
2022/11/25 07:16:10;;;;;;;94.90;57.00;;;;;;;3.74;100.00;99083.42;105930;1291;58895;-73
2022/11/25 07:18:38;;;;;;;95.10;59.60;;;;;;;3.77;100.00;99086.33;105916;1296;63949;-73
2022/11/25 07:21:11;;;;;;;85.10;54.10;;;;;;;3.79;100.00;99082.39;105599;1301;58934;-73
2022/11/25 07:23:39;;;;;;;91.30;56.10;;;;;;;3.79;100.00;99082.38;105908;1291;58878;-73
2022/11/25 07:26:38;;;;;;;83.20;53.00;;;;;;;3.81;100.00;99087.23;105925;1292;74512;-73
2022/11/25 07:29:07;;;;;;;83.00;53.70;;;;;;;3.83;100.00;99088.70;105301;1303;59977;-73
2022/11/25 07:31:36;;;;;;;;;;;;;;;3.87;100.00;99092.94;105300;1298;62952;-73
2022/11/25 07:34:09;;;;;;;87.00;52.70;;;;;;;3.91;100.00;99090.17;105203;1301;59024;-73
2022/11/25 07:36:35;;;;;;;86.00;51.80;;;;;;;3.97;100.00;99095.38;105266;1298;60274;-73
2022/11/25 07:39:04;;;;;;;90.50;55.90;;;;;;;4.03;100.00;99091.83;105291;1304;59777;-73
2022/11/25 07:41:30;;;;;;;84.80;54.00;;;;;;;4.11;100.00;99093.80;105234;1298;60164;-73
2022/11/25 07:44:02;;;;;;;82.90;53.90;;;;;;;4.16;100.00;99099.94;105296;1300;59045;-74
2022/11/25 07:46:31;;;;;;;88.80;55.80;;;;;;;4.19;100.00;99100.71;105254;1298;59341;-72
2022/11/25 07:49:04;;;;;;;86.00;54.70;;;;;;;4.20;100.00;99103.11;105307;1295;59217;-73
2022/11/25 07:51:31;;;;;;;94.50;60.20;;;;;;;4.23;100.00;99101.42;105244;1297;67182;-73
2022/11/25 07:53:59;;;;;;;96.00;62.10;;;;;;;4.27;100.00;99101.98;105275;1298;59121;-73
2022/11/25 07:56:27;;;;;;;90.90;58.30;;;;;;;4.31;100.00;99100.72;105294;1298;65261;-73
2022/11/25 07:58:54;;;;;;;86.00;57.10;;;;;;;4.37;100.00;99102.08;105262;1296;59025;-74
2022/11/25 08:01:21;;;;;;;79.70;53.20;;;;;;;4.44;100.00;99104.64;105250;1298;58971;-72
2022/11/25 08:03:49;;;;;;;72.80;47.50;;;;;;;4.50;100.00;99104.73;105271;1291;66123;-75
2022/11/25 08:06:19;;;;;;;76.60;50.40;;;;;;;4.58;100.00;99104.94;105727;1291;59035;-73
2022/11/25 08:08:48;;;;;;;74.80;50.70;;;;;;;4.67;100.00;99107.58;105928;1289;63264;-73
2022/11/25 08:11:19;;;;;;;71.30;47.80;;;;;;;4.75;100.00;99108.83;105958;1290;58928;-72
2022/11/25 08:13:46;;;;;;;70.70;45.10;;;;;;;4.81;100.00;99109.45;105933;1296;58854;-73
2022/11/25 08:16:15;;;;;;;70.40;44.80;;;;;;;4.85;100.00;99109.11;105946;1290;66052;-73
2022/11/25 08:18:41;;;;;;;66.30;43.00;;;;;;;4.90;100.00;99112.45;105854;1292;58941;-73
2022/11/25 08:21:09;;;;;;;64.60;42.70;;;;;;;4.93;100.00;99114.57;105939;1289;62444;-74
2022/11/25 08:23:37;;;;;;;57.40;39.40;;;;;;;4.98;100.00;99113.68;105767;1292;58844;-74
2022/11/25 08:26:09;;;;;;;61.00;40.30;;;;;;;5.02;100.00;99114.89;105948;1292;59178;-73
2022/11/25 08:28:36;;;;;;;54.70;39.10;;;;;;;5.10;100.00;99115.29;105940;1292;66873;-74
2022/11/25 08:31:04;;;;;;;59.80;41.00;;;;;;;5.19;100.00;99117.55;105721;1296;59745;-74
2022/11/25 08:33:30;;;;;;;57.20;40.10;;;;;;;5.28;100.00;99118.88;105773;1294;65271;-74
2022/11/25 08:35:56;;;;;;;59.60;40.10;;;;;;;5.40;100.00;99119.27;105657;1292;59052;-74
2022/11/25 08:38:22;;;;;;;56.00;38.30;;;;;;;5.51;100.00;99116.85;105923;1287;59112;-74
2022/11/25 08:40:48;;;;;;;55.60;37.90;;;;;;;5.57;100.00;99113.94;105942;1295;58879;-74
2022/11/25 08:43:14;;;;;;;61.50;42.10;;;;;;;5.64;100.00;99114.31;105760;1291;59161;-74
2022/11/25 08:45:40;;;;;;;54.20;40.00;;;;;;;5.72;100.00;99120.33;105908;1291;59024;-74
2022/11/25 08:48:07;;;;;;;56.30;39.70;;;;;;;5.80;100.00;99122.59;105924;1290;58835;-73
2022/11/25 08:50:32;;;;;;;57.10;40.20;;;;;;;5.89;100.00;99124.81;105921;1289;58851;-73
2022/11/25 08:53:00;;;;;;;52.90;36.90;;;;;;;5.97;100.00;99121.52;105915;1292;59157;-73
2022/11/25 08:55:27;;;;;;;50.20;35.20;;;;;;;6.00;100.00;99123.81;105935;1296;70880;-73
2022/11/25 08:57:53;;;;;;;47.50;33.30;;;;;;;6.03;100.00;99125.09;105899;1290;59222;-73
2022/11/25 09:00:21;;;;;;;47.50;32.90;;;;;;;6.02;100.00;99129.89;105671;1294;59045;-72
2022/11/25 09:02:47;;;;;;;47.40;34.60;;;;;;;6.03;100.00;99130.90;105949;1288;58741;-73
2022/11/25 09:05:15;;;;;;;47.20;33.60;;;;;;;6.04;100.00;99132.09;105908;1293;58978;-73
2022/11/25 09:07:42;;;;;;;46.60;33.70;;;;;;;6.07;100.00;99133.04;105922;1289;59616;-73
2022/11/25 09:10:13;;;;;;;46.10;32.80;;;;;;;6.08;100.00;99133.86;105936;1289;58966;-73
2022/11/25 09:12:39;;;;;;;46.30;31.90;;;;;;;6.10;100.00;99134.47;105924;1292;58903;-73
2022/11/25 09:15:06;;;;;;;42.60;29.80;;;;;;;6.13;100.00;99135.91;105958;1292;59105;-73
2022/11/25 09:17:36;;;;;;;42.50;28.10;;;;;;;6.17;100.00;99139.95;105648;1293;59608;-73
2022/11/25 09:20:05;;;;;;;40.40;28.80;;;;;;;6.23;100.00;99140.76;105922;1292;60313;-73
2022/11/25 09:22:31;;;;;;;37.70;29.20;;;;;;;6.29;100.00;99143.65;105904;1284;72176;-73
2022/11/25 09:24:57;;;;;;;36.40;27.40;;;;;;;6.32;100.00;99141.74;105902;1290;58910;-73
2022/11/25 09:27:23;;;;;;;45.30;29.90;;;;;;;6.36;100.00;99140.30;105930;1291;59416;-74
2022/11/25 09:29:50;;;;;;;38.70;28.30;;;;;;;6.41;100.00;99137.07;105925;1292;58993;-73
2022/11/25 09:32:16;;;;;;;41.30;28.80;;;;;;;6.48;100.00;99135.52;105917;1298;59188;-73
2022/11/25 09:34:42;;;;;;;36.70;27.10;;;;;;;6.59;100.00;99135.15;105897;1292;58954;-73
2022/11/25 09:37:10;;;;;;;36.70;28.10;;;;;;;6.71;100.00;99134.55;105902;1288;58897;-74
2022/11/25 09:39:36;;;;;;;35.50;26.30;;;;;;;6.79;100.00;99135.58;105916;1290;59019;-74
2022/11/25 09:48:05;;;;;;;40.80;28.50;;;;;;;6.82;100.00;99131.91;105939;1291;62674;-74
2022/11/25 09:50:56;;;;;;;40.80;26.90;;;;;;;6.85;100.00;99131.92;105753;1292;59624;-74
2022/11/25 09:53:33;;;;;;;36.40;26.20;;;;;;;6.87;100.00;99136.27;105919;1289;58945;-74
2022/11/25 09:56:03;;;;;;;35.80;26.20;;;;;;;6.86;100.00;99135.77;105950;1283;66113;-74
2022/11/25 09:58:40;;;;;;;34.20;25.10;;;;;;;6.85;100.00;99139.02;105631;1293;69751;-73
2022/11/25 10:01:17;;;;;;;34.30;26.90;;;;;;;6.86;100.00;99133.11;105554;1295;73848;-74
2022/11/25 10:03:51;;;;;;;36.90;25.90;;;;;;;6.87;100.00;99136.27;105517;1297;58993;-75
2022/11/25 10:06:24;;;;;;;40.50;26.10;;;;;;;6.90;100.00;99134.35;105739;1298;59313;-75
2022/11/25 10:08:56;;;;;;;36.40;25.80;;;;;;;6.96;100.00;99130.51;105646;1290;65964;-75
2022/11/25 10:11:31;;;;;;;41.80;25.60;;;;;;;6.98;100.00;99128.63;105637;1294;60172;-74
2022/11/25 10:14:04;;;;;;;42.60;27.00;;;;;;;7.04;100.00;99129.59;105695;1295;72932;-74
2022/11/25 10:16:53;;;;;;;34.70;24.90;;;;;;;7.11;100.00;99127.14;105731;1294;58988;-74
2022/11/25 10:19:37;;;;;;;33.30;24.30;;;;;;;7.18;100.00;99129.20;105314;1301;59183;-75
2022/11/25 10:22:21;;;;;;;30.80;23.50;;;;;;;7.22;100.00;99128.66;105376;1299;66084;-75
2022/11/25 10:24:48;;;;;;;31.30;23.00;;;;;;;7.24;100.00;99126.94;105359;1296;61984;-75
2022/11/25 10:27:26;;;;;;;34.20;22.90;;;;;;;7.24;100.00;99126.98;105366;1304;62967;-75
2022/11/25 10:30:06;;;;;;;36.50;23.00;;;;;;;7.17;100.00;99131.55;105355;1294;58899;-74
2022/11/25 10:32:40;;;;;;;34.10;23.60;;;;;;;7.09;100.00;99129.15;105335;1300;58945;-75
2022/11/25 10:35:17;;;;;;;36.40;23.90;;;;;;;7.03;100.00;99131.73;105395;1302;67677;-75
2022/11/25 10:37:46;;;;;;;32.80;23.20;;;;;;;7.00;100.00;99133.28;105396;1301;61733;-75
2022/11/25 10:40:16;;;;;;;31.10;22.20;;;;;;;6.99;100.00;99132.65;105401;1295;64245;-75
2022/11/25 10:42:42;;;;;;;33.30;23.70;;;;;;;7.00;100.00;99136.30;105421;1296;58970;-75
2022/11/25 10:45:22;;;;;;;33.50;22.60;;;;;;;7.02;100.00;99135.69;103990;1300;10135367;-75
2022/11/25 10:48:10;;;;;;;39.60;23.20;;;;;;;7.08;100.00;99137.15;105403;1298;61332;-75
2022/11/25 10:51:05;;;;;;;40.90;25.10;;;;;;;7.13;100.00;99136.34;105411;1295;66879;-75
2022/11/25 10:53:31;;;;;;;34.00;23.20;;;;;;;7.21;100.00;99137.72;105413;1291;69817;-75
2022/11/25 10:56:03;;;;;;;33.40;23.40;;;;;;;7.26;100.00;99138.00;105463;1292;58965;-75
2022/11/25 10:58:34;;;;;;;30.30;23.30;;;;;;;7.30;100.00;99132.33;105930;1292;59524;-75
2022/11/25 11:01:22;;;;;;;37.10;23.10;;;;;;;7.35;100.00;99133.48;105913;1290;59048;-75
2022/11/25 11:04:16;;;;;;;30.70;21.60;;;;;;;7.42;100.00;99133.09;105955;1291;65988;-75
2022/11/25 11:06:44;;;;;;;30.60;22.80;;;;;;;7.44;100.00;99137.40;105284;1299;69934;-75
2022/11/25 11:09:28;;;;;;;31.70;21.40;;;;;;;7.45;100.00;99136.30;105265;1298;72824;-74
2022/11/25 11:11:54;;;;;;;32.80;22.30;;;;;;;7.41;100.00;99139.89;105300;1305;59379;-74
2022/11/25 11:14:21;;;;;;;34.90;22.70;;;;;;;7.36;100.00;99138.71;105275;1300;58942;-75
2022/11/25 11:16:55;;;;;;;33.30;22.50;;;;;;;7.34;100.00;99142.36;105286;1296;58964;-74
2022/11/25 11:19:28;;;;;;;31.20;21.10;;;;;;;7.34;100.00;99138.66;105290;1299;59042;-75
2022/11/25 11:21:55;;;;;;;29.20;21.60;;;;;;;7.30;100.00;99143.98;105317;1291;73689;-75
2022/11/25 11:24:31;;;;;;;35.80;23.10;;;;;;;7.30;100.00;99145.20;105281;1292;58983;-75